sensor_id;sensor_type;location;lat;lon;timestamp;P1;durP1;ratioP1;P2;durP2;ratioP2
29320;SDS011;16323;51.130;6.612;2022-09-24T00:01:09;1.23;;;0.82;;
29320;SDS011;16323;51.130;6.612;2022-09-24T00:03:38;1.00;;;0.70;;
29320;SDS011;16323;51.130;6.612;2022-09-24T00:06:05;0.70;;;0.70;;
29320;SDS011;16323;51.130;6.612;2022-09-24T00:08:33;1.00;;;0.77;;
29320;SDS011;16323;51.130;6.612;2022-09-24T00:11:01;1.30;;;0.80;;
29320;SDS011;16323;51.130;6.612;2022-09-24T00:13:31;3.22;;;1.10;;
29320;SDS011;16323;51.130;6.612;2022-09-24T00:16:00;2.10;;;1.00;;
29320;SDS011;16323;51.130;6.612;2022-09-24T00:18:29;1.17;;;0.75;;
29320;SDS011;16323;51.130;6.612;2022-09-24T00:20:56;1.10;;;0.80;;
29320;SDS011;16323;51.130;6.612;2022-09-24T00:23:23;1.52;;;0.90;;
29320;SDS011;16323;51.130;6.612;2022-09-24T00:25:50;1.10;;;0.82;;
29320;SDS011;16323;51.130;6.612;2022-09-24T00:28:35;1.45;;;0.90;;
29320;SDS011;16323;51.130;6.612;2022-09-24T00:31:03;1.88;;;1.00;;
29320;SDS011;16323;51.130;6.612;2022-09-24T00:33:31;1.23;;;0.90;;
29320;SDS011;16323;51.130;6.612;2022-09-24T00:35:59;1.55;;;0.98;;
29320;SDS011;16323;51.130;6.612;2022-09-24T00:38:28;1.88;;;1.00;;
29320;SDS011;16323;51.130;6.612;2022-09-24T00:40:56;2.22;;;0.90;;
29320;SDS011;16323;51.130;6.612;2022-09-24T00:43:23;2.72;;;1.13;;
29320;SDS011;16323;51.130;6.612;2022-09-24T00:45:54;1.00;;;0.80;;
29320;SDS011;16323;51.130;6.612;2022-09-24T00:48:26;1.30;;;1.08;;
29320;SDS011;16323;51.130;6.612;2022-09-24T00:50:52;1.70;;;1.10;;
29320;SDS011;16323;51.130;6.612;2022-09-24T00:53:20;1.58;;;0.80;;
29320;SDS011;16323;51.130;6.612;2022-09-24T00:55:53;1.13;;;1.00;;
29320;SDS011;16323;51.130;6.612;2022-09-24T00:58:21;0.85;;;0.80;;
29320;SDS011;16323;51.130;6.612;2022-09-24T01:00:49;2.42;;;0.90;;
29320;SDS011;16323;51.130;6.612;2022-09-24T01:03:22;1.45;;;0.90;;
29320;SDS011;16323;51.130;6.612;2022-09-24T01:05:50;2.63;;;0.90;;
29320;SDS011;16323;51.130;6.612;2022-09-24T01:08:18;1.10;;;1.00;;
29320;SDS011;16323;51.130;6.612;2022-09-24T01:10:49;1.00;;;0.90;;
29320;SDS011;16323;51.130;6.612;2022-09-24T01:13:30;1.20;;;0.93;;
29320;SDS011;16323;51.130;6.612;2022-09-24T01:16:08;1.08;;;0.90;;
29320;SDS011;16323;51.130;6.612;2022-09-24T01:18:43;0.82;;;0.70;;
29320;SDS011;16323;51.130;6.612;2022-09-24T01:21:26;1.02;;;0.73;;
29320;SDS011;16323;51.130;6.612;2022-09-24T01:26:56;1.17;;;0.90;;
29320;SDS011;16323;51.130;6.612;2022-09-24T01:29:31;1.30;;;0.80;;
29320;SDS011;16323;51.130;6.612;2022-09-24T01:32:10;1.27;;;1.00;;
29320;SDS011;16323;51.130;6.612;2022-09-24T01:34:45;2.15;;;1.10;;
29320;SDS011;16323;51.130;6.612;2022-09-24T01:37:16;1.30;;;0.77;;
29320;SDS011;16323;51.130;6.612;2022-09-24T01:39:46;3.33;;;1.58;;
29320;SDS011;16323;51.130;6.612;2022-09-24T01:42:15;1.42;;;1.08;;
29320;SDS011;16323;51.130;6.612;2022-09-24T01:44:44;1.45;;;1.05;;
29320;SDS011;16323;51.130;6.612;2022-09-24T01:47:14;1.65;;;0.95;;
29320;SDS011;16323;51.130;6.612;2022-09-24T01:49:45;1.63;;;0.80;;
29320;SDS011;16323;51.130;6.612;2022-09-24T01:52:13;1.98;;;1.08;;
29320;SDS011;16323;51.130;6.612;2022-09-24T01:54:45;1.92;;;1.00;;
29320;SDS011;16323;51.130;6.612;2022-09-24T01:57:16;1.20;;;1.10;;
29320;SDS011;16323;51.130;6.612;2022-09-24T01:59:49;1.80;;;1.00;;
29320;SDS011;16323;51.130;6.612;2022-09-24T02:02:22;2.03;;;0.88;;
29320;SDS011;16323;51.130;6.612;2022-09-24T02:04:55;2.08;;;1.15;;
29320;SDS011;16323;51.130;6.612;2022-09-24T02:07:28;1.33;;;0.98;;
29320;SDS011;16323;51.130;6.612;2022-09-24T02:09:59;1.27;;;1.00;;
29320;SDS011;16323;51.130;6.612;2022-09-24T02:12:27;1.45;;;1.05;;
29320;SDS011;16323;51.130;6.612;2022-09-24T02:15:00;1.67;;;1.15;;
29320;SDS011;16323;51.130;6.612;2022-09-24T02:17:33;1.65;;;0.95;;
29320;SDS011;16323;51.130;6.612;2022-09-24T02:20:06;1.08;;;0.98;;
29320;SDS011;16323;51.130;6.612;2022-09-24T02:22:38;1.00;;;0.75;;
29320;SDS011;16323;51.130;6.612;2022-09-24T02:25:07;1.50;;;1.10;;
29320;SDS011;16323;51.130;6.612;2022-09-24T02:27:38;1.45;;;1.00;;
29320;SDS011;16323;51.130;6.612;2022-09-24T02:30:07;1.13;;;1.02;;
29320;SDS011;16323;51.130;6.612;2022-09-24T02:32:35;1.25;;;0.85;;
29320;SDS011;16323;51.130;6.612;2022-09-24T02:35:05;1.65;;;1.10;;
29320;SDS011;16323;51.130;6.612;2022-09-24T02:37:35;1.42;;;1.10;;
29320;SDS011;16323;51.130;6.612;2022-09-24T02:40:03;1.25;;;1.10;;
29320;SDS011;16323;51.130;6.612;2022-09-24T02:42:33;0.80;;;0.77;;
29320;SDS011;16323;51.130;6.612;2022-09-24T02:45:00;1.38;;;0.93;;
29320;SDS011;16323;51.130;6.612;2022-09-24T02:47:29;1.10;;;1.00;;
29320;SDS011;16323;51.130;6.612;2022-09-24T02:49:56;1.60;;;1.10;;
29320;SDS011;16323;51.130;6.612;2022-09-24T02:52:25;2.13;;;1.20;;
29320;SDS011;16323;51.130;6.612;2022-09-24T02:54:52;1.77;;;1.15;;
29320;SDS011;16323;51.130;6.612;2022-09-24T02:57:19;1.52;;;1.10;;
29320;SDS011;16323;51.130;6.612;2022-09-24T02:59:46;2.15;;;1.15;;
29320;SDS011;16323;51.130;6.612;2022-09-24T03:02:12;1.67;;;1.00;;
29320;SDS011;16323;51.130;6.612;2022-09-24T03:04:41;1.23;;;0.93;;
29320;SDS011;16323;51.130;6.612;2022-09-24T03:07:08;1.67;;;1.20;;
29320;SDS011;16323;51.130;6.612;2022-09-24T03:09:38;1.88;;;1.13;;
29320;SDS011;16323;51.130;6.612;2022-09-24T03:12:05;1.17;;;0.90;;
29320;SDS011;16323;51.130;6.612;2022-09-24T03:14:32;1.35;;;0.88;;
29320;SDS011;16323;51.130;6.612;2022-09-24T03:16:59;1.25;;;1.08;;
29320;SDS011;16323;51.130;6.612;2022-09-24T03:19:25;2.17;;;1.20;;
29320;SDS011;16323;51.130;6.612;2022-09-24T03:21:53;1.20;;;1.00;;
29320;SDS011;16323;51.130;6.612;2022-09-24T03:24:24;1.30;;;0.93;;
29320;SDS011;16323;51.130;6.612;2022-09-24T03:26:51;1.20;;;1.08;;
29320;SDS011;16323;51.130;6.612;2022-09-24T03:29:18;1.42;;;1.00;;
29320;SDS011;16323;51.130;6.612;2022-09-24T03:32:06;1.27;;;1.02;;
29320;SDS011;16323;51.130;6.612;2022-09-24T03:34:31;1.23;;;0.95;;
29320;SDS011;16323;51.130;6.612;2022-09-24T03:36:59;2.78;;;1.08;;
29320;SDS011;16323;51.130;6.612;2022-09-24T03:39:26;1.95;;;1.17;;
29320;SDS011;16323;51.130;6.612;2022-09-24T03:41:53;2.95;;;1.13;;
29320;SDS011;16323;51.130;6.612;2022-09-24T03:44:20;1.38;;;1.05;;
29320;SDS011;16323;51.130;6.612;2022-09-24T03:46:47;1.13;;;1.02;;
29320;SDS011;16323;51.130;6.612;2022-09-24T03:49:14;1.10;;;0.90;;
29320;SDS011;16323;51.130;6.612;2022-09-24T03:51:41;2.10;;;1.48;;
29320;SDS011;16323;51.130;6.612;2022-09-24T03:54:09;1.10;;;1.00;;
29320;SDS011;16323;51.130;6.612;2022-09-24T03:56:36;1.63;;;1.08;;
29320;SDS011;16323;51.130;6.612;2022-09-24T03:59:03;1.45;;;1.15;;
29320;SDS011;16323;51.130;6.612;2022-09-24T04:01:29;1.20;;;1.00;;
29320;SDS011;16323;51.130;6.612;2022-09-24T04:03:57;2.05;;;1.30;;
29320;SDS011;16323;51.130;6.612;2022-09-24T04:06:24;1.52;;;1.05;;
29320;SDS011;16323;51.130;6.612;2022-09-24T04:08:51;1.73;;;1.25;;
29320;SDS011;16323;51.130;6.612;2022-09-24T04:11:20;1.83;;;1.50;;
29320;SDS011;16323;51.130;6.612;2022-09-24T04:13:50;2.40;;;1.33;;
29320;SDS011;16323;51.130;6.612;2022-09-24T04:16:17;1.27;;;1.10;;
29320;SDS011;16323;51.130;6.612;2022-09-24T04:18:44;1.20;;;1.02;;
29320;SDS011;16323;51.130;6.612;2022-09-24T04:21:12;1.10;;;1.00;;
29320;SDS011;16323;51.130;6.612;2022-09-24T04:23:39;1.58;;;1.20;;
29320;SDS011;16323;51.130;6.612;2022-09-24T04:26:06;1.73;;;1.17;;
29320;SDS011;16323;51.130;6.612;2022-09-24T04:28:34;2.45;;;1.50;;
29320;SDS011;16323;51.130;6.612;2022-09-24T04:31:01;2.00;;;1.30;;
29320;SDS011;16323;51.130;6.612;2022-09-24T04:33:28;1.30;;;1.10;;
29320;SDS011;16323;51.130;6.612;2022-09-24T04:35:55;1.63;;;1.30;;
29320;SDS011;16323;51.130;6.612;2022-09-24T04:38:22;1.48;;;1.00;;
29320;SDS011;16323;51.130;6.612;2022-09-24T04:40:48;1.48;;;0.93;;
29320;SDS011;16323;51.130;6.612;2022-09-24T04:43:15;1.45;;;1.08;;
29320;SDS011;16323;51.130;6.612;2022-09-24T04:45:44;1.50;;;1.15;;
29320;SDS011;16323;51.130;6.612;2022-09-24T04:48:11;1.35;;;1.20;;
29320;SDS011;16323;51.130;6.612;2022-09-24T04:50:38;1.85;;;1.15;;
29320;SDS011;16323;51.130;6.612;2022-09-24T04:53:05;1.30;;;1.10;;
29320;SDS011;16323;51.130;6.612;2022-09-24T04:55:31;1.63;;;1.10;;
29320;SDS011;16323;51.130;6.612;2022-09-24T04:57:59;1.60;;;1.05;;
29320;SDS011;16323;51.130;6.612;2022-09-24T05:00:26;1.58;;;1.30;;
29320;SDS011;16323;51.130;6.612;2022-09-24T05:02:57;1.65;;;0.95;;
29320;SDS011;16323;51.130;6.612;2022-09-24T05:05:27;1.20;;;1.10;;
29320;SDS011;16323;51.130;6.612;2022-09-24T05:07:54;1.10;;;1.00;;
29320;SDS011;16323;51.130;6.612;2022-09-24T05:10:23;1.70;;;1.05;;
29320;SDS011;16323;51.130;6.612;2022-09-24T05:12:50;1.42;;;1.00;;
29320;SDS011;16323;51.130;6.612;2022-09-24T05:15:17;1.17;;;1.08;;
29320;SDS011;16323;51.130;6.612;2022-09-24T05:17:44;1.25;;;1.13;;
29320;SDS011;16323;51.130;6.612;2022-09-24T05:20:13;1.27;;;1.10;;
29320;SDS011;16323;51.130;6.612;2022-09-24T05:22:41;1.40;;;1.02;;
29320;SDS011;16323;51.130;6.612;2022-09-24T05:25:08;2.17;;;1.10;;
29320;SDS011;16323;51.130;6.612;2022-09-24T05:27:36;1.63;;;1.27;;
29320;SDS011;16323;51.130;6.612;2022-09-24T05:30:07;2.17;;;1.30;;
29320;SDS011;16323;51.130;6.612;2022-09-24T05:32:35;1.73;;;1.10;;
29320;SDS011;16323;51.130;6.612;2022-09-24T05:35:01;1.42;;;1.15;;
29320;SDS011;16323;51.130;6.612;2022-09-24T05:37:31;1.73;;;1.33;;
29320;SDS011;16323;51.130;6.612;2022-09-24T05:39:58;1.90;;;1.40;;
29320;SDS011;16323;51.130;6.612;2022-09-24T05:42:46;1.95;;;1.10;;
29320;SDS011;16323;51.130;6.612;2022-09-24T05:45:12;3.50;;;1.58;;
29320;SDS011;16323;51.130;6.612;2022-09-24T05:47:42;1.23;;;1.00;;
29320;SDS011;16323;51.130;6.612;2022-09-24T05:50:10;1.40;;;1.05;;
29320;SDS011;16323;51.130;6.612;2022-09-24T05:52:38;2.13;;;1.10;;
29320;SDS011;16323;51.130;6.612;2022-09-24T05:55:07;1.20;;;1.02;;
29320;SDS011;16323;51.130;6.612;2022-09-24T05:57:35;1.52;;;1.05;;
29320;SDS011;16323;51.130;6.612;2022-09-24T06:00:02;1.60;;;1.17;;
29320;SDS011;16323;51.130;6.612;2022-09-24T06:02:29;1.52;;;1.20;;
29320;SDS011;16323;51.130;6.612;2022-09-24T06:04:56;2.13;;;1.13;;
29320;SDS011;16323;51.130;6.612;2022-09-24T06:07:23;2.25;;;1.02;;
29320;SDS011;16323;51.130;6.612;2022-09-24T06:09:52;2.08;;;1.23;;
29320;SDS011;16323;51.130;6.612;2022-09-24T06:12:19;1.50;;;1.00;;
29320;SDS011;16323;51.130;6.612;2022-09-24T06:14:46;1.70;;;1.00;;
29320;SDS011;16323;51.130;6.612;2022-09-24T06:17:12;1.80;;;1.08;;
29320;SDS011;16323;51.130;6.612;2022-09-24T06:19:39;1.40;;;1.10;;
29320;SDS011;16323;51.130;6.612;2022-09-24T06:22:07;1.80;;;1.20;;
29320;SDS011;16323;51.130;6.612;2022-09-24T06:24:33;2.28;;;1.13;;
29320;SDS011;16323;51.130;6.612;2022-09-24T06:27:02;1.63;;;1.23;;
29320;SDS011;16323;51.130;6.612;2022-09-24T06:29:29;1.30;;;1.15;;
29320;SDS011;16323;51.130;6.612;2022-09-24T06:31:57;1.60;;;1.20;;
29320;SDS011;16323;51.130;6.612;2022-09-24T06:34:23;1.33;;;1.00;;
29320;SDS011;16323;51.130;6.612;2022-09-24T06:36:52;2.03;;;1.25;;
29320;SDS011;16323;51.130;6.612;2022-09-24T06:39:21;1.98;;;1.33;;
29320;SDS011;16323;51.130;6.612;2022-09-24T06:41:50;1.80;;;1.30;;
29320;SDS011;16323;51.130;6.612;2022-09-24T06:44:18;1.42;;;1.20;;
29320;SDS011;16323;51.130;6.612;2022-09-24T06:46:45;1.15;;;1.05;;
29320;SDS011;16323;51.130;6.612;2022-09-24T06:49:12;1.98;;;1.30;;
29320;SDS011;16323;51.130;6.612;2022-09-24T06:51:38;1.70;;;1.33;;
29320;SDS011;16323;51.130;6.612;2022-09-24T06:54:05;1.95;;;1.25;;
29320;SDS011;16323;51.130;6.612;2022-09-24T06:56:32;1.85;;;1.25;;
29320;SDS011;16323;51.130;6.612;2022-09-24T06:58:59;2.25;;;1.27;;
29320;SDS011;16323;51.130;6.612;2022-09-24T07:01:27;2.72;;;1.50;;
29320;SDS011;16323;51.130;6.612;2022-09-24T07:03:54;1.40;;;1.15;;
29320;SDS011;16323;51.130;6.612;2022-09-24T07:06:21;1.98;;;1.38;;
29320;SDS011;16323;51.130;6.612;2022-09-24T07:08:49;1.58;;;1.40;;
29320;SDS011;16323;51.130;6.612;2022-09-24T07:11:16;1.88;;;1.40;;
29320;SDS011;16323;51.130;6.612;2022-09-24T07:13:43;3.05;;;1.20;;
29320;SDS011;16323;51.130;6.612;2022-09-24T07:16:09;1.67;;;1.27;;
29320;SDS011;16323;51.130;6.612;2022-09-24T07:18:37;1.73;;;1.50;;
29320;SDS011;16323;51.130;6.612;2022-09-24T07:21:05;1.50;;;1.25;;
29320;SDS011;16323;51.130;6.612;2022-09-24T07:23:31;2.53;;;1.42;;
29320;SDS011;16323;51.130;6.612;2022-09-24T07:25:58;2.03;;;1.20;;
29320;SDS011;16323;51.130;6.612;2022-09-24T07:28:25;1.52;;;1.30;;
29320;SDS011;16323;51.130;6.612;2022-09-24T07:30:58;1.60;;;1.27;;
29320;SDS011;16323;51.130;6.612;2022-09-24T07:33:26;1.40;;;1.10;;
29320;SDS011;16323;51.130;6.612;2022-09-24T07:35:55;1.73;;;1.15;;
29320;SDS011;16323;51.130;6.612;2022-09-24T07:38:22;2.05;;;1.33;;
29320;SDS011;16323;51.130;6.612;2022-09-24T07:40:49;1.42;;;1.13;;
29320;SDS011;16323;51.130;6.612;2022-09-24T07:43:16;1.70;;;1.20;;
29320;SDS011;16323;51.130;6.612;2022-09-24T07:45:45;1.70;;;1.23;;
29320;SDS011;16323;51.130;6.612;2022-09-24T07:48:13;3.13;;;1.20;;
29320;SDS011;16323;51.130;6.612;2022-09-24T07:50:40;2.00;;;1.40;;
29320;SDS011;16323;51.130;6.612;2022-09-24T07:53:09;2.15;;;1.10;;
29320;SDS011;16323;51.130;6.612;2022-09-24T07:55:36;1.98;;;1.25;;
29320;SDS011;16323;51.130;6.612;2022-09-24T07:58:05;1.33;;;0.95;;
29320;SDS011;16323;51.130;6.612;2022-09-24T08:00:33;1.10;;;1.00;;
29320;SDS011;16323;51.130;6.612;2022-09-24T08:03:00;2.35;;;1.30;;
29320;SDS011;16323;51.130;6.612;2022-09-24T08:05:28;1.20;;;1.10;;
29320;SDS011;16323;51.130;6.612;2022-09-24T08:07:55;1.92;;;1.15;;
29320;SDS011;16323;51.130;6.612;2022-09-24T08:10:24;1.73;;;1.20;;
29320;SDS011;16323;51.130;6.612;2022-09-24T08:12:52;1.52;;;1.02;;
29320;SDS011;16323;51.130;6.612;2022-09-24T08:15:20;2.80;;;1.02;;
29320;SDS011;16323;51.130;6.612;2022-09-24T08:17:47;1.98;;;1.27;;
29320;SDS011;16323;51.130;6.612;2022-09-24T08:20:14;2.15;;;1.40;;
29320;SDS011;16323;51.130;6.612;2022-09-24T08:22:41;1.45;;;0.90;;
29320;SDS011;16323;51.130;6.612;2022-09-24T08:25:08;2.05;;;1.50;;
29320;SDS011;16323;51.130;6.612;2022-09-24T08:27:36;1.10;;;1.00;;
29320;SDS011;16323;51.130;6.612;2022-09-24T08:30:03;1.70;;;1.00;;
29320;SDS011;16323;51.130;6.612;2022-09-24T08:32:31;2.33;;;1.20;;
29320;SDS011;16323;51.130;6.612;2022-09-24T08:34:58;1.55;;;1.13;;
29320;SDS011;16323;51.130;6.612;2022-09-24T08:37:25;3.25;;;1.50;;
29320;SDS011;16323;51.130;6.612;2022-09-24T08:39:53;1.33;;;1.20;;
29320;SDS011;16323;51.130;6.612;2022-09-24T08:42:24;1.60;;;1.17;;
29320;SDS011;16323;51.130;6.612;2022-09-24T08:45:02;1.90;;;1.27;;
29320;SDS011;16323;51.130;6.612;2022-09-24T08:47:49;1.67;;;1.25;;
29320;SDS011;16323;51.130;6.612;2022-09-24T08:50:21;2.65;;;1.48;;
29320;SDS011;16323;51.130;6.612;2022-09-24T08:52:55;1.90;;;1.40;;
29320;SDS011;16323;51.130;6.612;2022-09-24T08:55:29;3.17;;;1.38;;
29320;SDS011;16323;51.130;6.612;2022-09-24T08:58:01;2.50;;;1.25;;
29320;SDS011;16323;51.130;6.612;2022-09-24T09:00:45;1.80;;;1.20;;
29320;SDS011;16323;51.130;6.612;2022-09-24T09:03:21;1.88;;;1.20;;
29320;SDS011;16323;51.130;6.612;2022-09-24T09:05:54;2.28;;;1.20;;
29320;SDS011;16323;51.130;6.612;2022-09-24T09:08:27;3.08;;;1.20;;
29320;SDS011;16323;51.130;6.612;2022-09-24T09:11:00;1.45;;;1.10;;
29320;SDS011;16323;51.130;6.612;2022-09-24T09:13:31;2.70;;;1.35;;
29320;SDS011;16323;51.130;6.612;2022-09-24T09:16:03;1.25;;;1.13;;
29320;SDS011;16323;51.130;6.612;2022-09-24T09:18:32;2.00;;;1.20;;
29320;SDS011;16323;51.130;6.612;2022-09-24T09:21:05;1.80;;;1.40;;
29320;SDS011;16323;51.130;6.612;2022-09-24T09:23:41;1.35;;;1.20;;
29320;SDS011;16323;51.130;6.612;2022-09-24T09:26:12;1.73;;;1.42;;
29320;SDS011;16323;51.130;6.612;2022-09-24T09:28:41;1.70;;;1.20;;
29320;SDS011;16323;51.130;6.612;2022-09-24T09:31:11;1.20;;;1.10;;
29320;SDS011;16323;51.130;6.612;2022-09-24T09:33:51;2.03;;;1.27;;
29320;SDS011;16323;51.130;6.612;2022-09-24T09:36:39;2.38;;;1.17;;
29320;SDS011;16323;51.130;6.612;2022-09-24T09:39:20;1.20;;;1.10;;
29320;SDS011;16323;51.130;6.612;2022-09-24T09:41:55;1.80;;;1.30;;
29320;SDS011;16323;51.130;6.612;2022-09-24T09:44:29;2.03;;;1.50;;
29320;SDS011;16323;51.130;6.612;2022-09-24T09:47:04;1.65;;;1.10;;
29320;SDS011;16323;51.130;6.612;2022-09-24T09:49:42;2.13;;;1.30;;
29320;SDS011;16323;51.130;6.612;2022-09-24T09:52:12;1.88;;;1.30;;
29320;SDS011;16323;51.130;6.612;2022-09-24T09:54:41;1.80;;;1.30;;
29320;SDS011;16323;51.130;6.612;2022-09-24T09:57:11;1.88;;;1.40;;
29320;SDS011;16323;51.130;6.612;2022-09-24T09:59:41;1.40;;;1.15;;
29320;SDS011;16323;51.130;6.612;2022-09-24T10:02:16;1.98;;;1.30;;
29320;SDS011;16323;51.130;6.612;2022-09-24T10:04:47;2.83;;;1.48;;
29320;SDS011;16323;51.130;6.612;2022-09-24T10:07:19;2.67;;;1.50;;
29320;SDS011;16323;51.130;6.612;2022-09-24T10:09:45;1.65;;;1.40;;
29320;SDS011;16323;51.130;6.612;2022-09-24T10:12:25;1.70;;;1.20;;
29320;SDS011;16323;51.130;6.612;2022-09-24T10:14:55;1.63;;;1.20;;
29320;SDS011;16323;51.130;6.612;2022-09-24T10:17:27;3.08;;;1.52;;
29320;SDS011;16323;51.130;6.612;2022-09-24T10:19:55;1.83;;;1.30;;
29320;SDS011;16323;51.130;6.612;2022-09-24T10:22:25;1.45;;;1.20;;
29320;SDS011;16323;51.130;6.612;2022-09-24T10:24:53;1.40;;;1.10;;
29320;SDS011;16323;51.130;6.612;2022-09-24T10:27:26;1.70;;;1.38;;
29320;SDS011;16323;51.130;6.612;2022-09-24T10:29:57;1.92;;;1.30;;
29320;SDS011;16323;51.130;6.612;2022-09-24T10:32:44;2.15;;;1.13;;
29320;SDS011;16323;51.130;6.612;2022-09-24T10:35:20;1.48;;;1.20;;
29320;SDS011;16323;51.130;6.612;2022-09-24T10:37:50;2.10;;;1.40;;
29320;SDS011;16323;51.130;6.612;2022-09-24T10:40:21;1.70;;;1.33;;
29320;SDS011;16323;51.130;6.612;2022-09-24T10:42:55;33.08;;;3.20;;
29320;SDS011;16323;51.130;6.612;2022-09-24T10:45:32;38.20;;;3.95;;
29320;SDS011;16323;51.130;6.612;2022-09-24T10:48:26;23.88;;;3.72;;
29320;SDS011;16323;51.130;6.612;2022-09-24T10:51:02;34.28;;;3.42;;
29320;SDS011;16323;51.130;6.612;2022-09-24T10:53:40;10.68;;;2.53;;
29320;SDS011;16323;51.130;6.612;2022-09-24T10:56:19;7.05;;;2.20;;
29320;SDS011;16323;51.130;6.612;2022-09-24T10:59:02;5.15;;;1.85;;
29320;SDS011;16323;51.130;6.612;2022-09-24T11:01:58;6.65;;;2.13;;
29320;SDS011;16323;51.130;6.612;2022-09-24T11:04:47;4.55;;;1.98;;
29320;SDS011;16323;51.130;6.612;2022-09-24T11:07:26;6.78;;;1.80;;
29320;SDS011;16323;51.130;6.612;2022-09-24T11:10:09;3.13;;;1.65;;
29320;SDS011;16323;51.130;6.612;2022-09-24T11:12:48;2.65;;;1.83;;
29320;SDS011;16323;51.130;6.612;2022-09-24T11:15:28;3.42;;;1.50;;
29320;SDS011;16323;51.130;6.612;2022-09-24T11:18:13;4.53;;;1.73;;
29320;SDS011;16323;51.130;6.612;2022-09-24T11:20:54;3.63;;;1.63;;
29320;SDS011;16323;51.130;6.612;2022-09-24T11:23:42;8.18;;;1.75;;
29320;SDS011;16323;51.130;6.612;2022-09-24T11:26:20;2.42;;;1.38;;
29320;SDS011;16323;51.130;6.612;2022-09-24T11:32:03;3.33;;;1.70;;
29320;SDS011;16323;51.130;6.612;2022-09-24T11:34:40;2.25;;;1.42;;
29320;SDS011;16323;51.130;6.612;2022-09-24T11:37:21;5.38;;;1.27;;
29320;SDS011;16323;51.130;6.612;2022-09-24T11:40:04;4.85;;;1.65;;
29320;SDS011;16323;51.130;6.612;2022-09-24T11:42:51;4.30;;;1.52;;
29320;SDS011;16323;51.130;6.612;2022-09-24T11:45:27;3.45;;;1.60;;
29320;SDS011;16323;51.130;6.612;2022-09-24T11:48:15;3.70;;;1.70;;
29320;SDS011;16323;51.130;6.612;2022-09-24T11:50:59;3.72;;;1.60;;
29320;SDS011;16323;51.130;6.612;2022-09-24T11:53:37;4.95;;;1.45;;
29320;SDS011;16323;51.130;6.612;2022-09-24T11:56:09;3.13;;;1.30;;
29320;SDS011;16323;51.130;6.612;2022-09-24T11:58:41;4.22;;;1.30;;
29320;SDS011;16323;51.130;6.612;2022-09-24T12:01:13;3.65;;;1.70;;
29320;SDS011;16323;51.130;6.612;2022-09-24T12:03:44;2.00;;;1.30;;
29320;SDS011;16323;51.130;6.612;2022-09-24T12:06:17;6.30;;;1.55;;
29320;SDS011;16323;51.130;6.612;2022-09-24T12:08:51;3.20;;;1.75;;
29320;SDS011;16323;51.130;6.612;2022-09-24T12:11:23;2.85;;;1.60;;
29320;SDS011;16323;51.130;6.612;2022-09-24T12:13:55;2.58;;;1.45;;
29320;SDS011;16323;51.130;6.612;2022-09-24T12:16:27;4.25;;;1.13;;
29320;SDS011;16323;51.130;6.612;2022-09-24T12:19:00;2.05;;;1.40;;
29320;SDS011;16323;51.130;6.612;2022-09-24T12:21:32;2.50;;;1.45;;
29320;SDS011;16323;51.130;6.612;2022-09-24T12:24:08;2.90;;;1.52;;
29320;SDS011;16323;51.130;6.612;2022-09-24T12:26:40;5.65;;;1.65;;
29320;SDS011;16323;51.130;6.612;2022-09-24T12:29:15;1.60;;;1.30;;
29320;SDS011;16323;51.130;6.612;2022-09-24T12:32:13;1.67;;;1.38;;
29320;SDS011;16323;51.130;6.612;2022-09-24T12:35:04;2.40;;;1.23;;
29320;SDS011;16323;51.130;6.612;2022-09-24T12:37:42;3.35;;;1.55;;
29320;SDS011;16323;51.130;6.612;2022-09-24T12:40:17;1.83;;;1.40;;
29320;SDS011;16323;51.130;6.612;2022-09-24T12:43:01;2.67;;;1.58;;
29320;SDS011;16323;51.130;6.612;2022-09-24T12:45:34;6.25;;;1.50;;
29320;SDS011;16323;51.130;6.612;2022-09-24T12:48:01;2.40;;;1.48;;
29320;SDS011;16323;51.130;6.612;2022-09-24T12:50:28;7.90;;;1.98;;
29320;SDS011;16323;51.130;6.612;2022-09-24T12:52:57;5.53;;;1.60;;
29320;SDS011;16323;51.130;6.612;2022-09-24T12:55:26;4.35;;;1.50;;
29320;SDS011;16323;51.130;6.612;2022-09-24T12:57:55;5.28;;;1.73;;
29320;SDS011;16323;51.130;6.612;2022-09-24T13:00:36;3.17;;;1.52;;
29320;SDS011;16323;51.130;6.612;2022-09-24T13:03:05;8.35;;;1.80;;
29320;SDS011;16323;51.130;6.612;2022-09-24T13:05:54;1.85;;;1.30;;
29320;SDS011;16323;51.130;6.612;2022-09-24T13:08:24;2.83;;;1.70;;
29320;SDS011;16323;51.130;6.612;2022-09-24T13:10:53;2.95;;;1.50;;
29320;SDS011;16323;51.130;6.612;2022-09-24T13:13:23;2.92;;;1.45;;
29320;SDS011;16323;51.130;6.612;2022-09-24T13:15:57;4.05;;;1.60;;
29320;SDS011;16323;51.130;6.612;2022-09-24T13:18:26;3.00;;;1.50;;
29320;SDS011;16323;51.130;6.612;2022-09-24T13:20:59;3.38;;;1.35;;
29320;SDS011;16323;51.130;6.612;2022-09-24T13:23:30;2.85;;;1.50;;
29320;SDS011;16323;51.130;6.612;2022-09-24T13:26:08;3.33;;;1.73;;
29320;SDS011;16323;51.130;6.612;2022-09-24T13:28:48;2.75;;;1.85;;
29320;SDS011;16323;51.130;6.612;2022-09-24T13:31:21;2.30;;;1.50;;
29320;SDS011;16323;51.130;6.612;2022-09-24T13:33:53;2.42;;;1.55;;
29320;SDS011;16323;51.130;6.612;2022-09-24T13:36:27;2.05;;;1.48;;
29320;SDS011;16323;51.130;6.612;2022-09-24T13:39:00;4.05;;;1.73;;
29320;SDS011;16323;51.130;6.612;2022-09-24T13:41:31;3.15;;;1.50;;
29320;SDS011;16323;51.130;6.612;2022-09-24T13:44:10;5.20;;;1.80;;
29320;SDS011;16323;51.130;6.612;2022-09-24T13:46:43;2.15;;;1.52;;
29320;SDS011;16323;51.130;6.612;2022-09-24T13:49:12;2.15;;;1.30;;
29320;SDS011;16323;51.130;6.612;2022-09-24T13:51:44;3.38;;;1.42;;
29320;SDS011;16323;51.130;6.612;2022-09-24T13:54:20;4.20;;;1.42;;
29320;SDS011;16323;51.130;6.612;2022-09-24T13:56:55;3.88;;;1.63;;
29320;SDS011;16323;51.130;6.612;2022-09-24T13:59:32;2.33;;;1.65;;
29320;SDS011;16323;51.130;6.612;2022-09-24T14:01:59;5.18;;;1.40;;
29320;SDS011;16323;51.130;6.612;2022-09-24T14:04:26;5.00;;;1.55;;
29320;SDS011;16323;51.130;6.612;2022-09-24T14:06:55;4.28;;;1.70;;
29320;SDS011;16323;51.130;6.612;2022-09-24T14:09:26;2.17;;;1.35;;
29320;SDS011;16323;51.130;6.612;2022-09-24T14:11:55;2.55;;;1.40;;
29320;SDS011;16323;51.130;6.612;2022-09-24T14:14:24;2.15;;;1.60;;
29320;SDS011;16323;51.130;6.612;2022-09-24T14:16:53;3.38;;;1.90;;
29320;SDS011;16323;51.130;6.612;2022-09-24T14:19:30;4.43;;;1.58;;
29320;SDS011;16323;51.130;6.612;2022-09-24T14:21:59;2.55;;;1.50;;
29320;SDS011;16323;51.130;6.612;2022-09-24T14:24:28;2.10;;;1.60;;
29320;SDS011;16323;51.130;6.612;2022-09-24T14:26:58;3.60;;;1.23;;
29320;SDS011;16323;51.130;6.612;2022-09-24T14:29:28;2.08;;;1.50;;
29320;SDS011;16323;51.130;6.612;2022-09-24T14:32:05;3.05;;;2.10;;
29320;SDS011;16323;51.130;6.612;2022-09-24T14:34:33;2.45;;;1.48;;
29320;SDS011;16323;51.130;6.612;2022-09-24T14:37:07;1.92;;;1.45;;
29320;SDS011;16323;51.130;6.612;2022-09-24T14:39:37;4.00;;;1.55;;
29320;SDS011;16323;51.130;6.612;2022-09-24T14:42:08;1.48;;;1.13;;
29320;SDS011;16323;51.130;6.612;2022-09-24T14:44:39;2.03;;;1.58;;
29320;SDS011;16323;51.130;6.612;2022-09-24T14:47:19;3.10;;;1.40;;
29320;SDS011;16323;51.130;6.612;2022-09-24T14:49:50;2.08;;;1.35;;
29320;SDS011;16323;51.130;6.612;2022-09-24T14:52:24;2.05;;;1.35;;
29320;SDS011;16323;51.130;6.612;2022-09-24T14:54:59;1.58;;;1.30;;
29320;SDS011;16323;51.130;6.612;2022-09-24T14:57:38;1.58;;;1.27;;
29320;SDS011;16323;51.130;6.612;2022-09-24T15:00:17;3.20;;;1.50;;
29320;SDS011;16323;51.130;6.612;2022-09-24T15:02:49;2.25;;;1.40;;
29320;SDS011;16323;51.130;6.612;2022-09-24T15:05:24;2.13;;;1.42;;
29320;SDS011;16323;51.130;6.612;2022-09-24T15:08:06;2.13;;;1.50;;
29320;SDS011;16323;51.130;6.612;2022-09-24T15:10:40;1.83;;;1.40;;
29320;SDS011;16323;51.130;6.612;2022-09-24T15:13:18;2.10;;;1.70;;
29320;SDS011;16323;51.130;6.612;2022-09-24T15:15:48;3.33;;;1.75;;
29320;SDS011;16323;51.130;6.612;2022-09-24T15:18:25;3.30;;;1.73;;